createdAt,value
2023-01-13T00:04:07.893Z,25.4
2023-01-13T00:09:10.124Z,25.8
2023-01-13T00:14:12.088Z,26
2023-01-13T00:19:14.438Z,24.6
2023-01-13T00:24:16.453Z,25
2023-01-13T00:29:18.507Z,23.8
2023-01-13T00:34:20.763Z,24.7
2023-01-13T00:39:22.981Z,24.2
2023-01-13T00:44:25.057Z,24.1
2023-01-13T00:49:28.473Z,25.4
2023-01-13T00:54:29.121Z,24.5
2023-01-13T00:59:33.525Z,24.8
2023-01-13T01:04:35.564Z,25
2023-01-13T01:09:37.521Z,26.9
2023-01-13T01:14:39.601Z,27.6
2023-01-13T01:19:41.577Z,27.9
2023-01-13T01:24:43.981Z,26.4
2023-01-13T01:29:46.295Z,23.9
2023-01-13T01:34:48.685Z,22.1
2023-01-13T01:39:50.740Z,21.8
2023-01-13T01:44:52.962Z,22.2
2023-01-13T01:49:55.045Z,22.9
2023-01-13T01:54:57.223Z,21.8
2023-01-13T01:59:59.271Z,22.8
2023-01-13T02:05:01.267Z,34.4
2023-01-13T02:10:01.622Z,33.9
2023-01-13T02:15:02.010Z,24.1
2023-01-13T02:20:04.141Z,23.8
2023-01-13T02:25:06.145Z,23.7
2023-01-13T02:30:08.763Z,23.3
2023-01-13T02:35:10.948Z,38
2023-01-13T02:40:11.343Z,25.7
2023-01-13T02:45:13.304Z,25.8
2023-01-13T02:50:15.228Z,23.6
2023-01-13T02:55:17.127Z,24.8
2023-01-13T03:00:19.175Z,24.9
2023-01-13T03:05:21.113Z,24.8
2023-01-13T03:10:23.298Z,25.3
2023-01-13T03:15:25.431Z,26.3
2023-01-13T03:20:27.765Z,27.6
2023-01-13T03:25:29.802Z,27.3
2023-01-13T03:30:31.888Z,27.8
2023-01-13T03:35:34.220Z,26.3
2023-01-13T03:40:36.390Z,39.3
2023-01-13T03:45:36.935Z,24.6
2023-01-13T03:50:39.271Z,23.6
2023-01-13T03:55:41.267Z,23.2
2023-01-13T04:00:43.353Z,21.7
2023-01-13T04:05:45.357Z,21
2023-01-13T04:10:47.319Z,20.3
2023-01-13T04:15:49.377Z,20.6
2023-01-13T04:20:52.069Z,22.9
2023-01-13T04:25:54.068Z,22
2023-01-13T04:30:56.241Z,22.5
2023-01-13T04:35:58.943Z,19.8
2023-01-13T04:41:01.174Z,18.8
2023-01-13T04:46:03.257Z,19.5
2023-01-13T04:51:05.436Z,20.2
2023-01-13T04:56:07.403Z,19.4
2023-01-13T05:01:09.621Z,18.7
2023-01-13T05:06:12.152Z,20.7
2023-01-13T05:11:14.193Z,19.4
2023-01-13T05:16:19.338Z,19.5
2023-01-13T05:21:21.956Z,18.3
2023-01-13T05:26:24.654Z,18.3
2023-01-13T05:31:26.925Z,18.2
2023-01-13T05:36:30.333Z,27.2
2023-01-13T05:41:30.774Z,19.1
2023-01-13T05:46:32.870Z,22
2023-01-13T05:51:37.996Z,22.8
2023-01-13T05:56:44.342Z,20.2
2023-01-13T06:01:46.951Z,20.9
2023-01-13T06:06:49.050Z,20.2
2023-01-13T06:11:51.095Z,20
2023-01-13T06:16:53.633Z,20.2
2023-01-13T06:21:55.917Z,21.4
2023-01-13T06:26:57.856Z,21.6
2023-01-13T06:32:00.215Z,19.7
2023-01-13T06:37:02.578Z,19.7
2023-01-13T06:42:05.102Z,19.3
2023-01-13T06:47:07.378Z,19.6
2023-01-13T06:52:09.380Z,20
2023-01-13T06:57:11.467Z,20.8
2023-01-13T07:02:13.765Z,20.3
2023-01-13T07:07:16.225Z,21
2023-01-13T07:12:18.307Z,21.7
2023-01-13T07:17:26.363Z,20.9
2023-01-13T07:22:32.051Z,20.1
2023-01-13T07:27:34.104Z,20.9
2023-01-13T07:32:36.298Z,20.8
2023-01-13T07:37:38.370Z,20.1
2023-01-13T07:42:40.452Z,20.3
2023-01-13T07:47:49.223Z,18.9
2023-01-13T07:52:44.517Z,20.3
2023-01-13T07:57:48.130Z,19.3
2023-01-13T08:02:50.820Z,18.3
2023-01-13T08:07:55.039Z,30.6
2023-01-13T08:12:57.904Z,19
2023-01-13T08:18:00.148Z,19.9
2023-01-13T08:23:02.814Z,19.1
2023-01-13T08:28:08.257Z,20.2
2023-01-13T08:33:10.446Z,20.6
2023-01-13T08:43:29.319Z,21.6
2023-01-13T08:58:42.867Z,20.8
2023-01-13T09:03:44.870Z,20
2023-01-13T09:08:47.110Z,19.6
2023-01-13T09:13:49.495Z,21
2023-01-13T09:18:51.607Z,19.6
2023-01-13T09:23:53.653Z,20.2
2023-01-13T09:28:55.856Z,19
2023-01-13T09:33:57.885Z,19.7
2023-01-13T09:38:59.963Z,20.3
2023-01-13T09:44:02.077Z,19.9
2023-01-13T09:49:04.165Z,19.3
2023-01-13T09:54:06.120Z,19.3
2023-01-13T09:59:08.404Z,18
2023-01-13T10:04:11.089Z,18.8
2023-01-13T10:09:13.120Z,21
2023-01-13T10:14:15.372Z,19.2
2023-01-13T10:19:17.988Z,18.9
2023-01-13T10:24:20.691Z,18
2023-01-13T10:29:22.784Z,17.9
2023-01-13T10:34:25.032Z,17.5
2023-01-13T10:39:27.476Z,16.8
2023-01-13T10:44:29.734Z,19.2
2023-01-13T10:49:31.919Z,18.2
2023-01-13T10:54:34.153Z,18.6
2023-01-13T10:59:36.427Z,18.1
2023-01-13T11:04:38.770Z,17.3
2023-01-13T11:09:41.036Z,18.1
2023-01-13T11:14:43.222Z,17.2
2023-01-13T11:19:45.346Z,16.4
2023-01-13T11:24:49.469Z,15.3
2023-01-13T11:29:52.975Z,14.5
2023-01-13T11:34:55.907Z,13.9
2023-01-13T11:39:58.013Z,15.7
2023-01-13T11:45:01.642Z,14.3
2023-01-13T11:50:05.237Z,12.9
2023-01-13T11:55:07.403Z,12
2023-01-13T12:00:09.846Z,11.5
2023-01-13T12:05:13.351Z,12.5
2023-01-13T12:10:15.624Z,12.5
2023-01-13T12:15:19.325Z,12.4
2023-01-13T12:20:21.688Z,12.7
2023-01-13T12:25:24.339Z,12.9
2023-01-13T12:30:26.754Z,11.9
2023-01-13T12:35:29.155Z,12.2
2023-01-13T12:40:31.354Z,11.6
2023-01-13T12:45:33.541Z,12
2023-01-13T12:50:35.846Z,12.2
2023-01-13T12:55:37.944Z,12.1
2023-01-13T13:00:40.407Z,12.8
2023-01-13T13:05:43.221Z,12.7
2023-01-13T13:10:45.726Z,13.9
2023-01-13T13:15:48.079Z,12.9
2023-01-13T13:20:50.291Z,12.9
2023-01-13T13:25:52.699Z,13
2023-01-13T13:30:56.920Z,12.3
2023-01-13T13:35:59.589Z,12.7
2023-01-13T13:41:01.773Z,11.9
2023-01-13T13:46:04.125Z,13.1
2023-01-13T13:51:06.602Z,13.3
2023-01-13T13:56:08.852Z,13.4
2023-01-13T14:01:11.126Z,13.8
2023-01-13T14:06:14.157Z,13.6
2023-01-13T14:11:16.418Z,13.8
2023-01-13T14:16:18.566Z,14.8
2023-01-13T14:21:20.781Z,15.1
2023-01-13T14:26:29.075Z,15.3
2023-01-13T14:31:31.909Z,15.6
2023-01-13T14:36:34.337Z,15.1
2023-01-13T14:41:36.619Z,15.8
2023-01-13T14:46:39.355Z,15
2023-01-13T14:51:41.943Z,18.1
2023-01-13T14:56:44.182Z,15.7
2023-01-13T15:01:46.825Z,15.1
2023-01-13T15:06:49.357Z,15.2
2023-01-13T15:11:51.386Z,16.7
2023-01-13T15:16:53.725Z,18
2023-01-13T15:21:56.163Z,18.3
2023-01-13T15:26:58.405Z,21.6
2023-01-13T15:32:03.386Z,21.5
2023-01-13T15:37:05.782Z,18.1
2023-01-13T15:42:08.030Z,17
2023-01-13T15:47:10.245Z,16.2
2023-01-13T15:52:14.307Z,17.8
2023-01-13T15:57:16.645Z,18.7
2023-01-13T16:02:18.801Z,18.6
2023-01-13T16:07:21.351Z,20.4
2023-01-13T16:12:23.710Z,18
2023-01-13T16:17:26.001Z,18.2
2023-01-13T16:22:28.809Z,18.9
2023-01-13T16:27:31.370Z,19.3
2023-01-13T16:32:33.939Z,19.5
2023-01-13T16:37:38.258Z,19
2023-01-13T16:42:40.447Z,19.8
2023-01-13T16:47:42.603Z,18.8
2023-01-13T16:52:45.862Z,20.1
2023-01-13T16:57:48.060Z,18.2
2023-01-13T17:02:50.183Z,19.7
2023-01-13T17:07:52.321Z,20.4
2023-01-13T17:12:54.514Z,20.2
2023-01-13T17:23:01.479Z,19
2023-01-13T17:28:03.831Z,19.7
2023-01-13T17:33:05.975Z,20
2023-01-13T17:38:08.385Z,18
2023-01-13T17:43:10.565Z,19.2
2023-01-13T17:48:12.655Z,18.5
2023-01-13T17:53:14.998Z,18.7
2023-01-13T17:58:17.335Z,17.8
2023-01-13T18:03:20.457Z,19.6
2023-01-13T18:08:22.583Z,20.4
2023-01-13T18:13:25.202Z,20.7
2023-01-13T18:18:27.928Z,21.1
2023-01-13T18:23:31.164Z,21.1
2023-01-13T18:28:33.428Z,22.4
2023-01-13T18:33:35.735Z,22.2
2023-01-13T18:38:38.034Z,22
2023-01-13T18:43:40.212Z,24.6
2023-01-13T18:48:42.380Z,23.1
2023-01-13T18:53:44.648Z,23.6
2023-01-13T18:58:46.853Z,24.5
2023-01-13T19:03:48.901Z,23.7
2023-01-13T19:08:50.972Z,23.1
2023-01-13T19:13:55.462Z,23.1
2023-01-13T19:18:58.122Z,22.8
2023-01-13T19:24:00.364Z,21.3
2023-01-13T19:29:07.328Z,21.9
2023-01-13T19:34:10.581Z,21.7
2023-01-13T19:39:12.977Z,22.6
2023-01-13T19:44:15.846Z,22.8
2023-01-13T19:49:18.191Z,23.1
2023-01-13T19:54:20.429Z,24
2023-01-13T19:59:22.891Z,24.8
2023-01-13T20:04:25.164Z,25.5
2023-01-13T20:09:27.389Z,27.4
2023-01-13T20:14:29.468Z,27.8
2023-01-13T20:19:31.714Z,26.2
2023-01-13T20:24:33.792Z,25.4
2023-01-13T20:29:36.305Z,24.6
2023-01-13T20:34:38.887Z,24.1
2023-01-13T20:39:41.004Z,25.7
2023-01-13T20:44:43.166Z,26.5
2023-01-13T20:49:45.395Z,27.1
2023-01-13T20:54:47.456Z,24.6
2023-01-13T20:59:49.624Z,23.5
2023-01-13T21:04:51.744Z,25.5
2023-01-13T21:09:53.918Z,24.4
2023-01-13T21:14:56.212Z,25.5
2023-01-13T21:19:58.729Z,28
2023-01-13T21:25:00.987Z,26.1
2023-01-13T21:30:03.383Z,27
2023-01-13T21:35:05.553Z,25.9
2023-01-13T21:40:07.862Z,25.8
2023-01-13T21:45:10.077Z,25.6
2023-01-13T21:50:13.485Z,26.4
2023-01-13T21:55:15.874Z,26.5
2023-01-13T22:00:18.594Z,27.1
2023-01-13T22:05:24.019Z,26.3
2023-01-13T22:10:27.033Z,27.3
2023-01-13T22:15:29.173Z,26.3
2023-01-13T22:20:31.421Z,27.1
2023-01-13T22:25:34.251Z,26.9
2023-01-13T22:30:36.762Z,26.9
2023-01-13T22:35:38.906Z,26.6
2023-01-13T22:40:41.114Z,28.8
2023-01-13T22:45:43.308Z,29.2
2023-01-13T22:50:45.550Z,28.3
2023-01-13T22:55:47.719Z,27.9
2023-01-13T23:00:49.738Z,26.5
2023-01-13T23:05:51.765Z,27.9
2023-01-13T23:10:53.982Z,28.8
2023-01-13T23:15:56.116Z,29.5
2023-01-13T23:20:58.284Z,29.8
2023-01-13T23:26:00.436Z,30.2
2023-01-13T23:31:03.022Z,30.9
2023-01-13T23:36:05.451Z,29.9
2023-01-13T23:41:07.564Z,31.1
2023-01-13T23:46:09.701Z,31.1
2023-01-13T23:51:12.016Z,31
2023-01-13T23:56:14.187Z,33.7
